This is the latest recevied weather packets stored in our database for station/object K7KAR-2. If no packets are shown the sender has not sent any weather packets the latest 10 day(s).
| Time | Temp. | Humidity | Pressure | Rain* | Wind** | Luminosity | Snow |
|---|---|---|---|---|---|---|---|
| 1777430714 | 7.78° C | 40% | 1017.2 hPa | 0 mm | - | 0 W/m² | - |
| 1777430409 | 7.78° C | 41% | 1017 hPa | 0 mm | - | 0 W/m² | - |
| 1777430105 | 7.78° C | 40% | 1016.8 hPa | 0 mm | - | 0 W/m² | - |
| 1777429801 | 8.33° C | 38% | 1016.9 hPa | 0 mm | - | 0 W/m² | - |
| 1777429497 | 8.89° C | 34% | 1016.9 hPa | 0 mm | - | 0 W/m² | - |
| 1777429193 | 10° C | 29% | 1016.9 hPa | 0 mm | - | 1 W/m² | - |
| 1777428889 | 10° C | 24% | 1016.6 hPa | 0 mm | - | 3 W/m² | - |
| 1777428585 | 10° C | 28% | 1016.8 hPa | 0 mm | - | 6 W/m² | - |
| 1777428281 | 10° C | 31% | 1016.8 hPa | 0 mm | - | 8 W/m² | - |
| 1777427976 | 9.44° C | 34% | 1016.8 hPa | 0 mm | - | 6 W/m² | - |
| 1777427673 | 8.89° C | 40% | 1016.8 hPa | 0 mm | - | 5 W/m² | - |
| 1777427370 | 8.89° C | 40% | 1016.6 hPa | 0 mm | - | 4 W/m² | - |
| 1777427067 | 8.89° C | 39% | 1016.5 hPa | 0 mm | - | 3 W/m² | - |
| 1777426764 | 9.44° C | 36% | 1016.5 hPa | 0 mm | - | 6 W/m² | - |
| 1777426461 | 10° C | 37% | 1016.4 hPa | 0 mm | - | 10 W/m² | - |
| 1777426157 | 10° C | 35% | 1016.4 hPa | 0 mm | - | 14 W/m² | - |
| 1777425852 | 10° C | 36% | 1016.1 hPa | 0 mm | - | 18 W/m² | - |
| 1777425548 | 10° C | 35% | 1016.1 hPa | 0 mm | - | 18 W/m² | - |
| 1777425243 | 10.56° C | 33% | 1016.3 hPa | 0 mm | - | 18 W/m² | - |
| 1777424940 | 11.11° C | 25% | 1016.1 hPa | 0 mm | - | 20 W/m² | - |
* Rain latest hour (hover to see other rain measurements)
** Current wind speed in m/s (hover to see current wind gust speed)